createdAt,value
2022-10-24T00:00:09.022Z,15.05
2022-10-24T00:02:36.371Z,14.13
2022-10-24T00:05:03.766Z,13.75
2022-10-24T00:07:30.921Z,14.35
2022-10-24T00:09:58.226Z,13.68
2022-10-24T00:12:25.358Z,17.30
2022-10-24T00:14:52.509Z,13.00
2022-10-24T00:17:19.657Z,14.45
2022-10-24T00:19:46.813Z,14.82
2022-10-24T00:22:13.963Z,13.18
2022-10-24T00:24:41.117Z,15.48
2022-10-24T00:27:09.548Z,14.10
2022-10-24T00:29:36.703Z,13.85
2022-10-24T00:32:03.893Z,13.65
2022-10-24T00:34:31.062Z,16.88
2022-10-24T00:36:58.223Z,12.10
2022-10-24T00:39:25.476Z,12.38
2022-10-24T00:41:54.189Z,13.18
2022-10-24T00:44:21.361Z,12.40
2022-10-24T00:46:50.737Z,15.18
2022-10-24T00:49:19.729Z,12.88
2022-10-24T00:51:48.775Z,13.07
2022-10-24T00:54:16.526Z,14.88
2022-10-24T00:56:48.145Z,12.43
2022-10-24T00:59:16.667Z,13.43
2022-10-24T01:01:44.476Z,10.98
2022-10-24T01:04:13.506Z,11.52
2022-10-24T01:06:58.936Z,14.98
2022-10-24T01:09:32.016Z,12.57
2022-10-24T01:12:01.938Z,13.07
2022-10-24T01:14:29.103Z,12.90
2022-10-24T01:17:17.829Z,12.90
2022-10-24T01:19:50.805Z,12.93
2022-10-24T01:22:21.409Z,10.75
2022-10-24T01:24:57.814Z,13.95
2022-10-24T01:27:24.954Z,14.85
2022-10-24T01:29:57.825Z,13.15
2022-10-24T01:32:27.778Z,9.30
2022-10-24T01:35:01.046Z,11.23
2022-10-24T01:37:36.697Z,12.85
2022-10-24T01:40:08.048Z,9.50
2022-10-24T01:42:36.725Z,11.43
2022-10-24T01:45:05.085Z,11.90
2022-10-24T01:47:39.709Z,11.98
2022-10-24T01:50:08.976Z,9.98
2022-10-24T01:52:38.054Z,10.55
2022-10-24T01:55:05.847Z,11.07
2022-10-24T01:57:34.276Z,9.77
2022-10-24T02:00:01.706Z,12.55
2022-10-24T02:02:32.328Z,9.60
2022-10-24T02:05:03.206Z,11.45
2022-10-24T02:07:38.403Z,10.85
2022-10-24T02:10:10.673Z,9.93
2022-10-24T02:12:40.637Z,10.07
2022-10-24T02:15:11.564Z,9.10
2022-10-24T02:17:38.679Z,8.63
2022-10-24T02:20:06.122Z,9.52
2022-10-24T02:22:36.345Z,9.15
2022-10-24T02:25:15.926Z,10.75
2022-10-24T02:27:50.936Z,9.90
2022-10-24T02:30:19.774Z,12.63
2022-10-24T02:32:51.080Z,11.02
2022-10-24T02:35:20.272Z,9.30
2022-10-24T02:37:50.059Z,8.77
2022-10-24T02:40:18.843Z,9.05
2022-10-24T02:42:47.015Z,9.55
2022-10-24T02:45:16.136Z,8.98
2022-10-24T02:47:44.265Z,9.10
2022-10-24T02:50:11.925Z,10.98
2022-10-24T02:52:43.693Z,12.65
2022-10-24T02:55:11.930Z,10.60
2022-10-24T02:57:39.729Z,9.27
2022-10-24T03:00:07.587Z,10.05
2022-10-24T03:02:34.756Z,10.13
2022-10-24T03:05:01.969Z,10.85
2022-10-24T03:10:01.242Z,10.05
2022-10-24T03:12:28.572Z,9.77
2022-10-24T03:14:55.804Z,10.07
2022-10-24T03:17:23.401Z,9.18
2022-10-24T03:19:50.589Z,9.77
2022-10-24T03:22:17.755Z,10.23
2022-10-24T03:24:55.089Z,9.90
2022-10-24T03:27:22.710Z,9.00
2022-10-24T03:29:49.960Z,8.93
2022-10-24T03:32:17.221Z,12.70
2022-10-24T03:34:44.462Z,9.27
2022-10-24T03:37:11.648Z,8.65
2022-10-24T03:39:38.862Z,9.32
2022-10-24T03:42:05.996Z,8.80
2022-10-24T03:44:33.190Z,8.35
2022-10-24T03:47:00.385Z,8.95
2022-10-24T03:49:27.609Z,10.13
2022-10-24T03:51:54.740Z,8.55
2022-10-24T03:54:21.879Z,7.95
2022-10-24T03:56:49.943Z,9.20
2022-10-24T03:59:17.540Z,7.82
2022-10-24T04:01:44.874Z,9.85
2022-10-24T04:04:12.125Z,9.35
2022-10-24T04:06:40.560Z,8.68
2022-10-24T04:09:07.894Z,8.63
2022-10-24T04:11:35.018Z,9.00
2022-10-24T04:16:34.802Z,8.73
2022-10-24T04:19:02.410Z,8.38
2022-10-24T04:21:29.565Z,9.18
2022-10-24T04:23:57.085Z,9.07
2022-10-24T04:26:24.246Z,16.60
2022-10-24T04:28:51.422Z,8.82
2022-10-24T04:31:22.485Z,9.82
2022-10-24T04:33:50.969Z,9.00
2022-10-24T04:36:18.218Z,8.00
2022-10-24T04:38:45.331Z,9.57
2022-10-24T04:41:12.560Z,8.18
2022-10-24T04:43:40.112Z,8.40
2022-10-24T04:46:07.565Z,10.20
2022-10-24T04:48:34.925Z,8.65
2022-10-24T04:51:02.287Z,9.45
2022-10-24T04:53:29.496Z,8.00
2022-10-24T04:55:56.686Z,6.93
2022-10-24T04:58:23.838Z,9.50
2022-10-24T05:00:51.044Z,9.95
2022-10-24T05:03:18.599Z,9.38
2022-10-24T05:05:45.983Z,9.18
2022-10-24T05:08:13.196Z,10.68
2022-10-24T05:10:40.382Z,11.00
2022-10-24T05:13:07.658Z,11.57
2022-10-24T05:15:34.825Z,10.10
2022-10-24T05:18:02.403Z,9.65
2022-10-24T05:20:29.598Z,8.55
2022-10-24T05:22:57.145Z,15.77
2022-10-24T05:25:24.370Z,15.80
2022-10-24T05:27:51.520Z,10.77
2022-10-24T05:30:18.788Z,13.90
2022-10-24T05:32:46.670Z,13.90
2022-10-24T05:35:14.323Z,11.27
2022-10-24T05:37:42.308Z,12.10
2022-10-24T05:40:10.313Z,11.73
2022-10-24T05:42:40.514Z,11.98
2022-10-24T05:45:08.247Z,12.43
2022-10-24T05:47:35.679Z,21.67
2022-10-24T05:50:02.842Z,13.90
2022-10-24T05:52:29.980Z,11.43
2022-10-24T05:55:06.695Z,12.65
2022-10-24T05:57:34.425Z,14.57
2022-10-24T06:00:01.721Z,12.10
2022-10-24T06:02:29.041Z,13.27
2022-10-24T06:04:57.241Z,12.15
2022-10-24T06:07:24.445Z,12.02
2022-10-24T06:09:51.649Z,13.15
2022-10-24T06:12:18.793Z,11.82
2022-10-24T06:14:46.125Z,11.90
2022-10-24T06:17:13.338Z,17.10
2022-10-24T06:19:40.708Z,13.00
2022-10-24T06:22:08.620Z,14.07
2022-10-24T06:24:36.462Z,14.40
2022-10-24T06:27:03.958Z,16.67
2022-10-24T06:29:31.386Z,17.77
2022-10-24T06:31:58.565Z,20.95
2022-10-24T06:34:25.801Z,14.88
2022-10-24T06:36:52.997Z,16.63
2022-10-24T06:39:20.198Z,16.95
2022-10-24T06:41:47.337Z,18.30
2022-10-24T06:44:15.017Z,15.68
2022-10-24T06:46:42.227Z,15.52
2022-10-24T06:49:10.194Z,16.42
2022-10-24T06:51:37.357Z,19.55
2022-10-24T06:54:04.552Z,16.17
2022-10-24T06:56:31.826Z,23.42
2022-10-24T06:58:58.989Z,18.65
2022-10-24T07:01:27.791Z,17.27
2022-10-24T07:03:55.666Z,16.77
2022-10-24T07:06:24.444Z,20.13
2022-10-24T07:08:52.858Z,20.77
2022-10-24T07:11:20.113Z,20.10
2022-10-24T07:13:47.367Z,18.08
2022-10-24T07:16:14.881Z,20.90
2022-10-24T07:18:42.289Z,18.10
2022-10-24T07:21:11.605Z,20.33
2022-10-24T07:23:38.769Z,28.30
2022-10-24T07:26:06.858Z,22.85
2022-10-24T07:28:34.528Z,21.30
2022-10-24T07:31:02.083Z,19.30
2022-10-24T07:33:29.524Z,20.13
2022-10-24T07:35:56.792Z,18.85
2022-10-24T07:38:24.005Z,17.95
2022-10-24T07:40:54.274Z,15.65
2022-10-24T07:43:21.450Z,13.63
2022-10-24T07:45:52.013Z,17.77
2022-10-24T07:48:19.876Z,15.30
2022-10-24T07:50:47.953Z,14.75
2022-10-24T07:53:15.544Z,16.50
2022-10-24T07:55:43.968Z,11.38
2022-10-24T07:58:11.862Z,12.43
2022-10-24T08:00:44.005Z,12.10
2022-10-24T08:03:15.204Z,10.32
2022-10-24T08:05:42.656Z,12.55
2022-10-24T08:08:35.941Z,12.80
2022-10-24T08:10:57.412Z,14.68
2022-10-24T08:13:24.751Z,14.07
2022-10-24T08:15:51.920Z,12.95
2022-10-24T08:18:19.070Z,14.30
2022-10-24T08:20:46.247Z,16.23
2022-10-24T08:23:13.406Z,16.30
2022-10-24T08:25:41.952Z,13.77
2022-10-24T08:28:09.364Z,14.57
2022-10-24T08:30:36.626Z,17.67
2022-10-24T08:33:03.814Z,17.70
2022-10-24T08:35:30.977Z,11.93
2022-10-24T08:37:58.809Z,15.50
2022-10-24T08:40:26.457Z,15.82
2022-10-24T08:42:53.674Z,16.70
2022-10-24T08:45:27.714Z,14.20
2022-10-24T08:48:05.307Z,14.77
2022-10-24T08:50:36.125Z,16.67
2022-10-24T08:53:05.017Z,19.38
2022-10-24T08:55:48.935Z,17.67
2022-10-24T08:58:19.106Z,16.98
2022-10-24T09:00:48.168Z,15.65
2022-10-24T09:03:43.933Z,16.73
2022-10-24T09:06:18.545Z,16.27
2022-10-24T09:08:54.685Z,15.20
2022-10-24T09:11:41.102Z,16.33
2022-10-24T09:14:13.515Z,15.52
2022-10-24T09:16:42.263Z,15.73
2022-10-24T09:19:13.838Z,23.30
2022-10-24T09:21:42.044Z,22.25
2022-10-24T09:24:18.196Z,20.40
2022-10-24T09:26:45.887Z,18.75
2022-10-24T09:29:13.011Z,23.38
2022-10-24T09:31:40.887Z,18.05
2022-10-24T09:34:08.058Z,22.25
2022-10-24T09:36:35.233Z,16.55
2022-10-24T09:39:20.980Z,15.55
2022-10-24T09:41:48.143Z,18.70
2022-10-24T09:44:29.534Z,20.83
2022-10-24T09:46:56.770Z,22.23
2022-10-24T09:49:26.853Z,22.92
2022-10-24T09:52:01.765Z,23.15
2022-10-24T09:54:30.086Z,30.93
2022-10-24T09:57:00.452Z,26.20
2022-10-24T09:59:30.883Z,19.58
2022-10-24T10:02:20.167Z,19.95
2022-10-24T10:05:10.534Z,21.77
2022-10-24T10:07:38.991Z,18.10
2022-10-24T10:10:06.207Z,22.27
2022-10-24T10:12:37.741Z,13.95
2022-10-24T10:15:24.848Z,20.27
2022-10-24T10:17:53.728Z,19.83
2022-10-24T10:20:41.317Z,19.58
2022-10-24T10:23:18.720Z,20.73
2022-10-24T10:25:45.847Z,18.58
2022-10-24T10:28:23.898Z,16.90
2022-10-24T10:30:54.206Z,20.75
2022-10-24T10:33:29.604Z,18.25
2022-10-24T10:35:56.824Z,16.85
2022-10-24T10:38:39.309Z,20.52
2022-10-24T10:41:06.448Z,18.30
2022-10-24T10:43:45.364Z,19.13
2022-10-24T10:46:18.593Z,14.95
2022-10-24T10:49:11.289Z,15.30
2022-10-24T10:51:48.105Z,18.42
2022-10-24T10:54:33.898Z,16.00
2022-10-24T10:57:03.725Z,13.30
2022-10-24T10:59:43.194Z,20.50
2022-10-24T11:02:29.428Z,13.90
2022-10-24T11:05:15.454Z,17.08
2022-10-24T11:07:51.714Z,15.80
2022-10-24T11:10:21.704Z,21.58
2022-10-24T11:12:48.976Z,14.95
2022-10-24T11:18:05.247Z,17.63
2022-10-24T11:20:35.312Z,17.77
2022-10-24T11:23:02.482Z,12.50
2022-10-24T11:25:35.877Z,15.15
2022-10-24T11:28:19.296Z,16.77
2022-10-24T11:31:06.701Z,11.98
2022-10-24T11:33:37.237Z,14.50
2022-10-24T11:36:08.912Z,15.13
2022-10-24T11:38:40.883Z,18.52
2022-10-24T11:41:23.249Z,13.75
2022-10-24T11:43:54.906Z,23.30
2022-10-24T11:46:24.391Z,116.68
2022-10-24T11:48:58.622Z,306.27
2022-10-24T11:51:29.220Z,332.90
2022-10-24T11:53:59.304Z,517.60
2022-10-24T11:56:40.146Z,438.15
2022-10-24T11:59:08.709Z,563.20
2022-10-24T12:01:54.603Z,885.05
2022-10-24T12:04:27.900Z,797.00
2022-10-24T12:07:01.333Z,525.60
2022-10-24T12:09:33.614Z,363.75
2022-10-24T12:12:01.738Z,300.00
2022-10-24T12:14:47.652Z,219.60
2022-10-24T12:17:17.817Z,111.63
2022-10-24T12:19:46.052Z,89.75
2022-10-24T12:25:06.464Z,52.22
2022-10-24T12:27:35.757Z,38.95
2022-10-24T12:30:16.432Z,26.15
2022-10-24T12:32:51.292Z,22.85
2022-10-24T12:35:31.626Z,30.53
2022-10-24T12:37:59.410Z,28.88
2022-10-24T12:40:45.630Z,28.05
2022-10-24T12:43:17.925Z,25.80
2022-10-24T12:45:45.236Z,31.25
2022-10-24T12:48:44.846Z,30.17
2022-10-24T12:51:30.988Z,28.95
2022-10-24T12:54:10.315Z,18.17
2022-10-24T12:56:37.885Z,17.48
2022-10-24T12:59:20.139Z,22.27
2022-10-24T13:01:48.643Z,16.50
2022-10-24T13:04:34.965Z,13.60
2022-10-24T13:09:44.721Z,16.38
2022-10-24T13:12:26.752Z,17.83
2022-10-24T13:15:14.187Z,17.90
2022-10-24T13:17:52.273Z,27.17
2022-10-24T13:20:24.094Z,28.25
2022-10-24T13:22:51.595Z,21.13
2022-10-24T13:25:33.539Z,15.18
2022-10-24T13:28:22.542Z,19.77
2022-10-24T13:30:50.813Z,12.60
2022-10-24T13:33:30.153Z,14.48
2022-10-24T13:36:05.840Z,14.77
2022-10-24T13:41:00.143Z,10.45
2022-10-24T13:43:27.373Z,12.95
2022-10-24T13:46:00.166Z,16.90
2022-10-24T13:48:32.162Z,10.50
2022-10-24T13:51:17.474Z,18.08
2022-10-24T13:53:55.617Z,15.10
2022-10-24T13:56:22.781Z,15.10
2022-10-24T13:58:50.088Z,17.65
2022-10-24T14:01:17.391Z,10.65
2022-10-24T14:03:45.179Z,13.38
2022-10-24T14:06:12.522Z,16.33
2022-10-24T14:08:48.169Z,14.82
2022-10-24T14:11:23.648Z,12.65
2022-10-24T14:13:55.979Z,15.00
2022-10-24T14:16:30.529Z,14.10
2022-10-24T14:19:27.155Z,19.90
2022-10-24T14:21:57.021Z,17.55
2022-10-24T14:24:24.238Z,11.93
2022-10-24T14:26:54.031Z,10.57
2022-10-24T14:29:27.579Z,12.13
2022-10-24T14:32:05.217Z,12.27
2022-10-24T14:34:36.146Z,16.27
2022-10-24T14:37:07.986Z,13.77
2022-10-24T14:39:35.669Z,16.08
2022-10-24T14:42:03.382Z,11.68
2022-10-24T14:44:31.535Z,13.73
2022-10-24T14:47:02.522Z,12.20
2022-10-24T14:49:33.238Z,13.50
2022-10-24T14:52:02.201Z,11.10
2022-10-24T14:54:33.539Z,15.88
2022-10-24T14:57:01.538Z,12.20
2022-10-24T14:59:29.881Z,11.60
2022-10-24T15:02:02.352Z,13.02
2022-10-24T15:04:37.496Z,11.38
2022-10-24T15:07:16.403Z,15.65
2022-10-24T15:09:57.763Z,14.18
2022-10-24T15:12:38.268Z,10.40
2022-10-24T15:15:23.692Z,13.60
2022-10-24T15:18:00.209Z,13.57
2022-10-24T15:20:29.943Z,15.07
2022-10-24T15:23:00.244Z,17.45
2022-10-24T15:25:36.829Z,11.45
2022-10-24T15:28:07.105Z,12.65
2022-10-24T15:30:36.784Z,11.50
2022-10-24T15:33:05.077Z,13.52
2022-10-24T15:35:35.513Z,13.50
2022-10-24T15:38:11.956Z,14.27
2022-10-24T15:40:41.675Z,12.23
2022-10-24T15:43:12.650Z,12.60
2022-10-24T15:45:39.821Z,14.70
2022-10-24T15:48:07.054Z,16.70
2022-10-24T15:50:34.512Z,14.25
2022-10-24T15:53:02.920Z,16.60
2022-10-24T15:55:30.776Z,18.75
2022-10-24T15:57:59.875Z,13.90
2022-10-24T16:00:27.174Z,14.55
2022-10-24T16:02:56.956Z,14.98
2022-10-24T16:05:26.668Z,12.60
2022-10-24T16:07:53.816Z,13.45
2022-10-24T16:10:21.784Z,11.82
2022-10-24T16:12:49.699Z,11.68
2022-10-24T16:15:19.716Z,17.40
2022-10-24T16:17:48.622Z,20.15
2022-10-24T16:20:16.143Z,12.35
2022-10-24T16:22:43.357Z,17.02
2022-10-24T16:25:17.743Z,14.05
2022-10-24T16:27:45.135Z,18.90
2022-10-24T16:30:13.315Z,15.75
2022-10-24T16:32:40.555Z,13.68
2022-10-24T16:35:07.896Z,17.13
2022-10-24T16:37:35.247Z,19.05
2022-10-24T16:40:02.539Z,15.88
2022-10-24T16:42:29.701Z,14.43
2022-10-24T16:44:57.033Z,19.92
2022-10-24T16:47:25.218Z,16.00
2022-10-24T16:49:58.242Z,13.98
2022-10-24T16:52:25.945Z,13.68
2022-10-24T16:54:53.426Z,14.40
2022-10-24T16:57:21.097Z,19.15
2022-10-24T16:59:48.403Z,16.80
2022-10-24T17:02:16.460Z,16.80
2022-10-24T17:04:43.989Z,11.82
2022-10-24T17:07:11.561Z,13.43
2022-10-24T17:09:39.051Z,15.88
2022-10-24T17:12:06.688Z,12.93
2022-10-24T17:14:34.912Z,12.50
2022-10-24T17:17:02.043Z,15.25
2022-10-24T17:19:30.654Z,12.75
2022-10-24T17:21:57.854Z,17.08
2022-10-24T17:24:25.974Z,11.93
2022-10-24T17:26:53.534Z,14.85
2022-10-24T17:29:24.094Z,15.52
2022-10-24T17:31:51.360Z,19.15
2022-10-24T17:34:18.556Z,14.63
2022-10-24T17:36:49.232Z,12.88
2022-10-24T17:41:56.779Z,16.13
2022-10-24T17:44:24.058Z,13.05
2022-10-24T17:46:54.630Z,13.23
2022-10-24T17:49:25.555Z,35.47
2022-10-24T17:51:52.688Z,23.13
2022-10-24T17:54:19.855Z,19.60
2022-10-24T17:56:47.084Z,18.88
2022-10-24T17:59:14.921Z,19.15
2022-10-24T18:01:43.525Z,16.92
2022-10-24T18:04:11.289Z,18.90
2022-10-24T18:06:42.950Z,15.73
2022-10-24T18:09:10.746Z,18.45
2022-10-24T18:11:38.823Z,19.58
2022-10-24T18:14:05.961Z,14.60
2022-10-24T18:16:33.291Z,14.48
2022-10-24T18:19:01.454Z,14.68
2022-10-24T18:21:28.723Z,19.70
2022-10-24T18:23:56.526Z,16.33
2022-10-24T18:26:25.003Z,17.98
2022-10-24T18:28:52.982Z,17.70
2022-10-24T18:31:21.549Z,19.10
2022-10-24T18:33:49.133Z,21.10
2022-10-24T18:36:18.210Z,19.90
2022-10-24T18:38:45.476Z,16.23
2022-10-24T18:41:30.560Z,12.52
2022-10-24T18:43:59.073Z,16.77
2022-10-24T18:46:26.596Z,14.07
2022-10-24T18:48:53.963Z,14.32
2022-10-24T18:51:32.321Z,16.23
2022-10-24T18:54:04.101Z,19.85
2022-10-24T18:56:31.314Z,18.25
2022-10-24T18:58:58.641Z,17.05
2022-10-24T19:01:48.482Z,17.10
2022-10-24T19:04:23.487Z,18.38
2022-10-24T19:06:52.392Z,20.83
2022-10-24T19:09:21.299Z,13.80
2022-10-24T19:11:48.862Z,14.32
2022-10-24T19:14:16.612Z,17.75
2022-10-24T19:16:45.832Z,14.98
2022-10-24T19:19:19.258Z,18.75
2022-10-24T19:21:49.055Z,20.40
2022-10-24T19:24:17.073Z,17.85
2022-10-24T19:26:44.245Z,20.30
2022-10-24T19:29:11.398Z,16.27
2022-10-24T19:31:38.568Z,13.77
2022-10-24T19:34:05.749Z,20.38
2022-10-24T19:36:34.194Z,16.80
2022-10-24T19:39:01.594Z,15.77
2022-10-24T19:41:28.780Z,12.68
2022-10-24T19:43:56.034Z,13.20
2022-10-24T19:46:23.441Z,16.33
2022-10-24T19:48:51.204Z,15.13
2022-10-24T19:51:19.080Z,12.48
2022-10-24T19:53:46.685Z,13.70
2022-10-24T19:56:19.015Z,13.57
2022-10-24T19:58:48.568Z,13.05
2022-10-24T20:01:16.940Z,15.75
2022-10-24T20:03:45.055Z,17.98
2022-10-24T20:06:14.098Z,12.68
2022-10-24T20:08:41.532Z,12.52
2022-10-24T20:11:09.092Z,16.83
2022-10-24T20:13:36.426Z,16.05
2022-10-24T20:16:05.893Z,15.93
2022-10-24T20:18:33.912Z,11.27
2022-10-24T20:21:04.089Z,14.27
2022-10-24T20:23:31.685Z,21.20
2022-10-24T20:26:00.320Z,13.15
2022-10-24T20:28:27.612Z,21.85
2022-10-24T20:30:55.013Z,15.05
2022-10-24T20:33:22.293Z,12.90
2022-10-24T20:35:49.431Z,16.98
2022-10-24T20:38:16.671Z,12.93
2022-10-24T20:40:43.825Z,14.57
2022-10-24T20:43:10.979Z,15.07
2022-10-24T20:45:41.323Z,13.35
2022-10-24T20:48:08.790Z,20.67
2022-10-24T20:50:36.857Z,12.68
2022-10-24T20:53:04.509Z,14.27
2022-10-24T20:55:43.366Z,11.10
2022-10-24T20:58:14.501Z,13.98
2022-10-24T21:03:15.214Z,10.20
2022-10-24T21:05:42.433Z,11.93
2022-10-24T21:08:09.579Z,11.30
2022-10-24T21:10:36.774Z,17.27
2022-10-24T21:13:03.923Z,13.18
2022-10-24T21:15:31.044Z,12.68
2022-10-24T21:17:58.224Z,13.13
2022-10-24T21:20:25.389Z,17.98
2022-10-24T21:22:52.500Z,11.57
2022-10-24T21:25:19.660Z,12.45
2022-10-24T21:27:47.059Z,12.52
2022-10-24T21:30:14.996Z,13.50
2022-10-24T21:32:42.359Z,10.93
2022-10-24T21:35:09.586Z,10.07
2022-10-24T21:37:36.797Z,12.10
2022-10-24T21:40:04.549Z,13.02
2022-10-24T21:42:33.212Z,17.75
2022-10-24T21:45:00.606Z,20.77
2022-10-24T21:47:28.373Z,16.60
2022-10-24T21:49:55.540Z,15.55
2022-10-24T21:52:22.772Z,14.15
2022-10-24T21:54:49.981Z,20.13
2022-10-24T21:57:17.208Z,12.63
2022-10-24T21:59:44.387Z,12.18
2022-10-24T22:02:11.762Z,14.65
2022-10-24T22:04:39.015Z,11.52
2022-10-24T22:07:07.146Z,14.30
2022-10-24T22:09:34.273Z,10.60
2022-10-24T22:12:01.462Z,14.57
2022-10-24T22:14:28.640Z,13.88
2022-10-24T22:16:55.820Z,11.15
2022-10-24T22:19:23.001Z,11.38
2022-10-24T22:21:53.092Z,11.18
2022-10-24T22:24:21.805Z,10.48
2022-10-24T22:26:49.491Z,10.95
2022-10-24T22:29:18.552Z,11.40
2022-10-24T22:31:46.098Z,12.48
2022-10-24T22:34:18.378Z,13.75
2022-10-24T22:37:05.513Z,11.80
2022-10-24T22:39:33.092Z,13.88
2022-10-24T22:42:00.336Z,13.05
2022-10-24T22:44:27.663Z,10.73
2022-10-24T22:46:57.821Z,16.02
2022-10-24T22:49:43.899Z,12.50
2022-10-24T22:52:11.426Z,10.43
2022-10-24T22:54:39.542Z,10.75
2022-10-24T22:57:06.835Z,9.98
2022-10-24T22:59:34.214Z,10.80
2022-10-24T23:02:13.546Z,11.07
2022-10-24T23:04:59.921Z,14.55
2022-10-24T23:07:31.614Z,13.43
2022-10-24T23:09:58.831Z,10.18
2022-10-24T23:12:26.164Z,9.65
2022-10-24T23:14:53.620Z,9.98
2022-10-24T23:17:25.239Z,10.02
2022-10-24T23:19:52.544Z,11.88
2022-10-24T23:22:27.301Z,9.35
2022-10-24T23:24:55.663Z,9.43
2022-10-24T23:27:29.192Z,9.85
2022-10-24T23:29:57.257Z,10.73
2022-10-24T23:32:24.555Z,10.02
2022-10-24T23:34:52.445Z,10.10
2022-10-24T23:37:36.313Z,9.65
2022-10-24T23:40:18.793Z,9.85
2022-10-24T23:42:46.500Z,9.65
2022-10-24T23:45:14.496Z,9.50
2022-10-24T23:50:22.877Z,9.00
2022-10-24T23:52:56.114Z,9.43
2022-10-24T23:55:23.372Z,10.63
2022-10-24T23:57:50.529Z,8.95
